This is the latest recevied weather packets stored in our database for station/object N7YET. If no packets are shown the sender has not sent any weather packets the latest 1 day(s).
| Time | Temp. | Humidity | Pressure | Rain* | Wind** | Luminosity | Snow |
|---|---|---|---|---|---|---|---|
| 1836274455 | 15° C | 47% | 1016.9 hPa | 0 mm | 2.24 m/s, 145° | - | - |
| 1836274305 | 14.44° C | 46% | 1016.9 hPa | 0 mm | 1.34 m/s, 122° | - | - |
| 1778054131 | -0.56° C | 54% | 1231.9 hPa | 0 mm | 0 m/s | - | - |
| 1778053531 | -1.11° C | 54% | 1231.9 hPa | 0 mm | 0 m/s | - | - |
| 1778052930 | -1.11° C | 54% | 1231.9 hPa | 0 mm | 0 m/s | - | - |
| 1778052329 | -1.67° C | 53% | 1231.9 hPa | 0 mm | 0 m/s | - | - |
| 1778051729 | -1.11° C | 53% | 1231.9 hPa | 0 mm | 0 m/s | - | - |
| 1778051128 | -0.56° C | 53% | 1231.9 hPa | 0 mm | 1.34 m/s, 70° | - | - |
| 1778050528 | -0.56° C | 53% | 1231.9 hPa | 0 mm | 1.34 m/s, 81° | - | - |
| 1778049927 | -0.56° C | 53% | 1231.9 hPa | 0 mm | 1.79 m/s, 90° | - | - |
| 1778049327 | -0.56° C | 53% | 1231.9 hPa | 0 mm | 1.79 m/s, 92° | - | - |
| 1778048726 | -0.56° C | 53% | 1231.9 hPa | 0 mm | 1.79 m/s, 87° | - | - |
| 1778048125 | -0.56° C | 53% | 1231.9 hPa | 0 mm | 1.79 m/s, 68° | - | - |
| 1778047525 | 0° C | 54% | 1231.9 hPa | 0 mm | 1.79 m/s, 97° | - | - |
| 1778046924 | -0.56° C | 54% | 1231.9 hPa | 0 mm | 1.79 m/s, 71° | - | - |
| 1778046324 | 0° C | 55% | 1231.9 hPa | 0 mm | 1.34 m/s, 119° | - | - |
| 1778045723 | 0° C | 54% | 1231.9 hPa | 0 mm | 1.79 m/s, 135° | - | - |
| 1778045122 | 0.56° C | 55% | 1231.9 hPa | 0 mm | 1.79 m/s, 113° | - | - |
| 1778044521 | 0.56° C | 55% | 1231.9 hPa | 0 mm | 1.34 m/s, 82° | - | - |
| 1778043921 | 0.56° C | 55% | 1231.9 hPa | 0 mm | 0 m/s | - | - |
| 1778043320 | 0.56° C | 54% | 1231.9 hPa | 0 mm | 0.45 m/s, 74° | - | - |
| 1778042720 | 1.11° C | 54% | 1231.9 hPa | 0 mm | 0.89 m/s, 91° | - | - |
| 1778042119 | 1.67° C | 54% | 1231.9 hPa | 0 mm | 2.24 m/s, 105° | - | - |
| 1778041519 | 1.67° C | 54% | 1231.9 hPa | 0 mm | 1.34 m/s, 123° | - | - |
| 1778040918 | 1.67° C | 54% | 1231.9 hPa | 0 mm | 0.45 m/s, 112° | - | - |
* Rain latest hour (hover to see other rain measurements)
** Current wind speed in m/s (hover to see current wind gust speed)